Time;durP1;ratioP1;P1;durP2;ratioP2;P2;SDS_P1;SDS_P2;PMS_P1;PMS_P2;Temp;Humidity;BMP_temperature;BMP_pressure;BME280_temperature;BME280_humidity;BME280_pressure;Samples;Min_cycle;Max_cycle;Signal;HPM_P1;HPM_P2
2022/07/17 00:02:08;;;;;;;5.50;4.20;;;25.50;83.30;;;;;;5050289;28;20294;-73
2022/07/17 00:05:12;;;;;;;11.00;4.63;;;25.50;83.60;;;;;;5049386;28;20044;-73
2022/07/17 00:08:16;;;;;;;8.82;4.13;;;25.50;84.40;;;;;;5050495;28;20040;-73
2022/07/17 00:11:20;;;;;;;5.72;4.60;;;25.50;84.10;;;;;;5049994;28;20060;-72
2022/07/17 00:14:24;;;;;;;4.70;4.30;;;25.40;84.50;;;;;;5049541;28;20040;-73
2022/07/17 00:17:28;;;;;;;6.53;5.15;;;25.40;84.30;;;;;;5049959;28;20396;-74
2022/07/17 00:20:34;;;;;;;4.70;4.30;;;25.40;84.50;;;;;;5049913;28;20052;-72
2022/07/17 00:23:39;;;;;;;5.45;4.93;;;25.40;84.60;;;;;;5049590;28;20044;-72
2022/07/17 00:26:42;;;;;;;4.78;4.30;;;25.40;84.70;;;;;;5049794;28;20044;-72
2022/07/17 00:29:46;;;;;;;9.00;5.18;;;25.40;85.50;;;;;;5049986;28;20372;-73
2022/07/17 00:32:51;;;;;;;6.35;4.55;;;25.30;85.00;;;;;;5052061;28;20056;-72
2022/07/17 00:35:54;;;;;;;5.57;4.47;;;25.30;85.10;;;;;;5054082;28;20056;-73
2022/07/17 00:38:59;;;;;;;6.68;4.53;;;25.30;85.30;;;;;;5053851;28;20516;-74
2022/07/17 00:42:03;;;;;;;6.65;4.60;;;25.20;85.30;;;;;;5053563;28;20052;-73
2022/07/17 00:45:12;;;;;;;6.80;5.00;;;25.20;85.50;;;;;;5052887;28;20040;-73
2022/07/17 00:48:16;;;;;;;8.07;4.47;;;25.20;85.60;;;;;;5053867;28;20396;-73
2022/07/17 00:51:20;;;;;;;5.20;4.70;;;25.10;85.50;;;;;;5053906;28;20064;-74
2022/07/17 00:54:24;;;;;;;9.32;4.35;;;25.10;85.50;;;;;;5053372;28;20384;-74
2022/07/17 00:57:29;;;;;;;6.80;4.55;;;25.00;87.50;;;;;;5053349;28;20487;-74
2022/07/17 01:00:35;;;;;;;6.53;4.50;;;24.70;88.10;;;;;;5041500;28;20387;-73
2022/07/17 01:03:39;;;;;;;5.90;4.43;;;24.50;89.60;;;;;;5053161;28;20060;-73
2022/07/17 01:06:43;;;;;;;8.98;4.57;;;24.50;90.40;;;;;;5053420;28;20048;-74
2022/07/17 01:09:47;;;;;;;6.72;4.40;;;24.40;90.80;;;;;;5053063;28;20060;-73
2022/07/17 01:12:52;;;;;;;5.03;4.40;;;24.40;91.00;;;;;;5053182;28;20048;-74
2022/07/17 01:15:56;;;;;;;4.90;4.38;;;24.30;91.30;;;;;;5053301;28;20391;-73
2022/07/17 01:19:00;;;;;;;5.90;4.43;;;24.10;91.80;;;;;;5052631;28;20036;-73
2022/07/17 01:22:04;;;;;;;5.70;4.70;;;24.00;92.00;;;;;;5053032;28;20052;-74
2022/07/17 01:25:09;;;;;;;7.10;4.53;;;23.90;92.40;;;;;;5052333;28;20101;-73
2022/07/17 01:28:14;;;;;;;6.32;4.70;;;23.90;92.80;;;;;;5052513;28;20032;-73
2022/07/17 01:31:18;;;;;;;6.13;4.68;;;23.80;93.10;;;;;;5053142;28;20036;-73
2022/07/17 01:34:22;;;;;;;11.07;5.10;;;23.70;93.40;;;;;;5050790;28;20048;-74
2022/07/17 01:37:25;;;;;;;5.15;4.65;;;23.70;93.70;;;;;;5052465;28;20517;-73
2022/07/17 01:40:29;;;;;;;7.05;4.50;;;23.60;94.30;;;;;;5052943;28;20043;-73
2022/07/17 01:43:34;;;;;;;5.90;4.63;;;23.50;94.70;;;;;;5047843;28;20403;-73
2022/07/17 01:46:38;;;;;;;6.97;5.53;;;23.40;95.20;;;;;;5052778;28;20334;-74
2022/07/17 01:49:52;;;;;;;5.15;4.55;;;23.30;95.50;;;;;;5052557;28;20482;-74
2022/07/17 01:52:56;;;;;;;6.00;4.55;;;23.30;96.20;;;;;;5052518;28;20391;-73
2022/07/17 01:56:00;;;;;;;8.40;5.80;;;23.20;96.60;;;;;;5052441;28;20056;-74
2022/07/17 01:59:04;;;;;;;6.75;5.78;;;23.10;97.70;;;;;;5052202;28;20506;-73
2022/07/17 02:02:08;;;;;;;7.93;5.00;;;23.00;98.30;;;;;;5052478;28;20059;-74
2022/07/17 02:05:13;;;;;;;8.00;5.13;;;22.90;99.00;;;;;;5051585;28;20053;-73
2022/07/17 02:08:17;;;;;;;5.57;5.07;;;23.00;99.60;;;;;;5052388;28;20048;-73
2022/07/17 02:11:21;;;;;;;6.25;4.75;;;23.00;99.80;;;;;;5052612;28;20048;-73
2022/07/17 02:14:25;;;;;;;8.05;4.93;;;23.10;99.90;;;;;;5051851;28;20047;-73
2022/07/17 02:17:29;;;;;;;6.57;4.97;;;23.10;99.90;;;;;;5051898;28;20069;-73
2022/07/17 02:20:33;;;;;;;6.30;4.88;;;23.10;99.90;;;;;;5052174;28;20052;-74
2022/07/17 02:23:38;;;;;;;8.38;5.05;;;23.20;99.90;;;;;;5051459;28;20044;-73
2022/07/17 02:26:42;;;;;;;9.00;5.03;;;23.20;99.90;;;;;;5052030;28;20486;-74
2022/07/17 02:29:46;;;;;;;6.28;5.03;;;23.30;99.90;;;;;;5051530;28;20048;-73
2022/07/17 02:32:50;;;;;;;5.78;4.82;;;23.30;99.90;;;;;;5051897;28;20056;-74
2022/07/17 02:35:54;;;;;;;6.38;5.05;;;23.30;99.90;;;;;;5051858;28;20104;-74
2022/07/17 02:38:59;;;;;;;5.75;5.13;;;23.30;99.90;;;;;;5051639;28;20051;-74
2022/07/17 02:42:02;;;;;;;6.25;5.60;;;23.30;99.90;;;;;;5051709;28;20044;-74
2022/07/17 02:45:08;;;;;;;6.65;5.60;;;23.30;99.90;;;;;;5050787;28;20048;-73
2022/07/17 02:48:12;;;;;;;6.10;5.35;;;23.20;99.90;;;;;;5051443;28;20048;-74
2022/07/17 02:51:16;;;;;;;9.32;5.82;;;23.30;99.90;;;;;;5051504;28;20498;-74
2022/07/17 02:54:20;;;;;;;7.07;5.25;;;23.30;99.90;;;;;;5050988;28;20048;-74
2022/07/17 02:57:24;;;;;;;5.82;4.95;;;23.20;99.90;;;;;;5051212;28;20055;-74
2022/07/17 03:00:28;;;;;;;8.43;5.30;;;23.10;99.90;;;;;;5051018;28;20403;-73
2022/07/17 03:03:32;;;;;;;7.28;5.70;;;23.00;99.90;;;;;;5050466;28;20048;-73
2022/07/17 03:06:36;;;;;;;6.03;5.32;;;23.00;99.90;;;;;;5051317;28;20068;-74
2022/07/17 03:09:40;;;;;;;6.50;5.15;;;23.00;99.90;;;;;;5050922;28;20052;-74
2022/07/17 03:12:45;;;;;;;12.65;5.55;;;22.90;99.90;;;;;;5047931;28;20028;-73
2022/07/17 03:15:48;;;;;;;7.75;5.97;;;22.90;99.90;;;;;;5051242;28;20064;-73
2022/07/17 03:18:52;;;;;;;7.22;5.80;;;22.90;99.90;;;;;;5050509;28;20056;-74
2022/07/17 03:21:56;;;;;;;10.13;5.90;;;22.80;99.90;;;;;;5051125;28;20059;-73
2022/07/17 03:25:00;;;;;;;11.82;5.85;;;22.70;99.90;;;;;;5050358;28;20099;-74
2022/07/17 03:28:04;;;;;;;6.70;5.30;;;22.60;99.90;;;;;;5050903;28;20484;-74
2022/07/17 03:31:08;;;;;;;7.95;6.13;;;22.60;99.90;;;;;;5050730;28;20044;-73
2022/07/17 03:34:13;;;;;;;8.10;5.13;;;22.50;99.90;;;;;;5050136;28;20055;-74
2022/07/17 03:37:18;;;;;;;7.15;5.72;;;22.50;99.90;;;;;;5050577;28;20487;-74
2022/07/17 03:40:22;;;;;;;9.20;5.38;;;22.50;99.90;;;;;;5050652;28;20391;-73
2022/07/17 03:43:25;;;;;;;6.32;5.43;;;22.50;99.90;;;;;;5050094;28;20498;-73
2022/07/17 03:46:29;;;;;;;9.75;5.90;;;22.40;99.90;;;;;;5050946;28;20059;-74
2022/07/17 03:49:33;;;;;;;10.68;5.45;;;22.40;99.90;;;;;;5049972;28;20048;-73
2022/07/17 03:52:37;;;;;;;7.63;5.65;;;22.30;99.90;;;;;;5050743;28;20044;-74
2022/07/17 03:55:41;;;;;;;13.63;6.00;;;22.30;99.90;;;;;;5050524;28;20055;-73
2022/07/17 03:58:45;;;;;;;7.88;5.22;;;22.30;99.90;;;;;;5050605;28;20047;-73
2022/07/17 04:01:49;;;;;;;5.70;5.10;;;22.40;99.90;;;;;;5050535;28;20048;-74
2022/07/17 04:04:53;;;;;;;7.90;5.38;;;22.40;99.90;;;;;;5049732;28;20048;-74
2022/07/17 04:07:58;;;;;;;12.63;5.78;;;22.40;99.90;;;;;;5049567;28;20040;-74
2022/07/17 04:11:02;;;;;;;7.05;5.30;;;22.30;99.90;;;;;;5050334;28;20403;-74
2022/07/17 04:14:06;;;;;;;7.28;5.65;;;22.30;99.90;;;;;;5049750;28;20040;-74
2022/07/17 04:17:10;;;;;;;7.65;5.55;;;22.30;99.90;;;;;;5050039;28;20060;-73
2022/07/17 04:20:14;;;;;;;5.32;4.82;;;22.40;99.90;;;;;;5049884;28;20048;-74
2022/07/17 04:23:19;;;;;;;7.30;5.40;;;22.50;99.90;;;;;;5049894;28;20055;-74
2022/07/17 04:26:23;;;;;;;7.50;4.90;;;22.50;99.90;;;;;;5050030;28;20395;-73
2022/07/17 04:29:28;;;;;;;7.45;5.60;;;22.60;99.90;;;;;;5050054;28;20052;-74
2022/07/17 04:32:31;;;;;;;5.88;5.00;;;22.60;99.90;;;;;;5050200;28;20048;-73
2022/07/17 04:35:36;;;;;;;6.03;5.07;;;22.70;99.90;;;;;;5049828;28;20058;-74
2022/07/17 04:38:40;;;;;;;6.35;5.05;;;22.80;99.90;;;;;;5047147;28;20044;-74
2022/07/17 04:41:44;;;;;;;17.10;5.68;;;23.00;99.90;;;;;;5047093;28;20052;-74
2022/07/17 04:44:48;;;;;;;12.90;5.25;;;24.40;99.90;;;;;;5049452;28;20518;-74
2022/07/17 04:47:52;;;;;;;9.80;4.60;;;26.80;99.90;;;;;;5050000;28;20044;-74
2022/07/17 04:50:56;;;;;;;10.85;5.68;;;28.90;98.40;;;;;;5049846;28;20060;-74
2022/07/17 04:54:00;;;;;;;7.43;4.70;;;30.40;95.20;;;;;;5049485;28;20190;-74
2022/07/17 04:57:04;;;;;;;7.07;4.40;;;31.40;92.70;;;;;;5049901;28;20403;-74
2022/07/17 05:00:09;;;;;;;9.38;4.47;;;31.90;91.00;;;;;;5049339;28;20040;-74
2022/07/17 05:03:13;;;;;;;9.68;4.80;;;32.50;89.90;;;;;;5049632;28;20347;-74
2022/07/17 05:06:17;;;;;;;8.05;4.43;;;33.00;87.90;;;;;;5049665;28;20047;-74
2022/07/17 05:09:21;;;;;;;6.30;4.47;;;33.60;86.10;;;;;;5049275;28;20044;-74
2022/07/17 05:12:25;;;;;;;7.32;4.72;;;32.20;86.70;;;;;;5043992;28;20048;-74
2022/07/17 05:15:29;;;;;;;8.57;4.90;;;30.60;90.10;;;;;;5049213;28;20040;-74
2022/07/17 05:18:33;;;;;;;6.60;4.28;;;31.40;90.10;;;;;;5045938;28;20108;-74
2022/07/17 05:21:37;;;;;;;7.72;4.40;;;32.20;88.70;;;;;;5053071;28;20056;-74
2022/07/17 05:24:40;;;;;;;8.13;4.75;;;32.80;87.30;;;;;;5052601;28;20044;-75
2022/07/17 05:27:45;;;;;;;6.57;4.13;;;32.30;87.20;;;;;;5053123;28;20048;-75
2022/07/17 05:30:48;;;;;;;5.28;4.13;;;32.50;87.40;;;;;;5052807;28;20048;-74
2022/07/17 05:33:52;;;;;;;6.82;4.40;;;32.80;86.90;;;;;;5052194;28;20048;-74
2022/07/17 05:36:57;;;;;;;12.88;4.35;;;33.50;85.10;;;;;;5051850;28;20052;-74
2022/07/17 05:40:01;;;;;;;9.43;4.20;;;33.30;85.30;;;;;;5052794;28;20056;-74
2022/07/17 05:43:05;;;;;;;7.20;4.50;;;33.60;84.10;;;;;;5052977;28;20052;-74
2022/07/17 05:46:09;;;;;;;6.82;3.95;;;33.80;83.80;;;;;;5052429;28;20486;-75
2022/07/17 05:49:13;;;;;;;4.22;3.83;;;34.00;82.60;;;;;;5052732;28;20048;-74
2022/07/17 05:52:17;;;;;;;7.90;4.10;;;34.20;82.20;;;;;;5052536;28;20044;-75
2022/07/17 05:55:21;;;;;;;9.95;3.67;;;33.90;81.40;;;;;;5051990;28;20048;-74
2022/07/17 05:58:25;;;;;;;5.65;3.55;;;33.20;82.00;;;;;;5052469;28;20529;-74
2022/07/17 06:01:29;;;;;;;8.60;3.72;;;32.90;81.80;;;;;;5052476;28;20047;-74
2022/07/17 06:04:33;;;;;;;6.57;3.75;;;32.70;82.00;;;;;;5039849;28;20324;-74
2022/07/17 06:07:37;;;;;;;5.00;4.38;;;32.60;82.10;;;;;;5052425;28;20411;-74
2022/07/17 06:10:42;;;;;;;9.68;3.72;;;33.00;81.90;;;;;;5052375;28;20052;-74
2022/07/17 06:13:46;;;;;;;7.57;3.65;;;32.00;81.60;;;;;;5051626;28;20048;-74
2022/07/17 06:16:51;;;;;;;7.03;3.35;;;32.00;81.40;;;;;;5052234;28;20044;-74
2022/07/17 06:19:55;;;;;;;5.65;3.50;;;32.20;81.30;;;;;;5052302;28;20040;-74
2022/07/17 06:22:59;;;;;;;4.82;3.17;;;33.10;80.50;;;;;;5052075;28;20044;-74
2022/07/17 06:26:04;;;;;;;6.30;3.65;;;34.00;79.10;;;;;;5051595;28;20036;-75
2022/07/17 06:29:08;;;;;;;11.60;3.75;;;34.30;77.90;;;;;;5051711;28;20491;-74
2022/07/17 06:32:13;;;;;;;6.85;3.22;;;35.00;77.30;;;;;;5051756;28;20052;-74
2022/07/17 06:35:17;;;;;;;6.15;3.25;;;35.80;75.90;;;;;;5051255;28;20061;-74
2022/07/17 06:38:21;;;;;;;4.85;3.13;;;36.70;74.40;;;;;;5051505;28;20052;-74
2022/07/17 06:41:25;;;;;;;6.30;3.30;;;37.00;73.30;;;;;;5051556;28;20491;-74
2022/07/17 06:44:29;;;;;;;5.53;3.17;;;36.90;72.90;;;;;;5051139;28;20081;-74
2022/07/17 06:47:34;;;;;;;7.40;3.30;;;37.60;72.10;;;;;;5051669;28;20044;-75
2022/07/17 06:50:38;;;;;;;3.33;2.83;;;37.90;70.80;;;;;;5051465;28;20047;-75
2022/07/17 06:53:42;;;;;;;5.43;3.00;;;37.60;70.50;;;;;;5050566;28;20028;-75
2022/07/17 06:56:46;;;;;;;6.35;3.20;;;36.80;71.40;;;;;;5050932;28;20044;-75
2022/07/17 06:59:50;;;;;;;10.13;3.08;;;37.10;71.20;;;;;;5051180;28;20506;-75
2022/07/17 07:02:54;;;;;;;4.75;2.90;;;36.70;72.20;;;;;;5050699;28;20040;-74
2022/07/17 07:05:59;;;;;;;3.72;3.15;;;35.20;72.30;;;;;;5050983;28;20495;-74
2022/07/17 07:09:03;;;;;;;5.88;3.30;;;35.40;73.00;;;;;;5050663;28;20523;-75
2022/07/17 07:12:07;;;;;;;5.00;2.80;;;35.10;73.40;;;;;;5050847;28;20044;-74
2022/07/17 07:15:11;;;;;;;3.28;2.97;;;34.50;73.70;;;;;;5050774;28;20044;-75
2022/07/17 07:18:16;;;;;;;5.20;3.60;;;34.80;74.20;;;;;;5050588;28;20044;-74
2022/07/17 07:21:20;;;;;;;3.42;2.58;;;35.60;72.00;;;;;;5050880;28;20081;-74
2022/07/17 07:24:24;;;;;;;5.95;2.78;;;36.30;71.60;;;;;;5050583;28;20059;-74
2022/07/17 07:27:28;;;;;;;5.57;2.53;;;37.20;69.90;;;;;;5051159;28;20040;-74
2022/07/17 07:30:32;;;;;;;6.10;2.80;;;38.00;69.10;;;;;;5050810;28;20044;-75
2022/07/17 07:33:36;;;;;;;4.00;2.50;;;38.60;68.30;;;;;;5037715;28;20056;-74
2022/07/17 07:36:40;;;;;;;4.13;2.50;;;38.50;68.00;;;;;;5048542;28;20048;-75
2022/07/17 07:39:45;;;;;;;6.35;2.53;;;39.50;66.50;;;;;;5050563;28;20586;-75
2022/07/17 07:42:49;;;;;;;4.82;2.60;;;40.20;65.40;;;;;;5049945;28;20040;-75
2022/07/17 07:45:53;;;;;;;4.38;2.22;;;40.80;64.80;;;;;;5050447;28;20068;-75
2022/07/17 07:48:57;;;;;;;6.53;2.47;;;41.40;63.60;;;;;;5050468;28;20395;-75
2022/07/17 07:52:01;;;;;;;4.85;2.60;;;40.30;63.60;;;;;;5050339;28;20048;-74
2022/07/17 07:55:08;;;;;;;6.10;2.70;;;37.70;66.30;;;;;;5050017;28;20052;-74
2022/07/17 07:58:13;;;;;;;5.72;2.70;;;37.70;67.20;;;;;;5050180;28;20044;-74
2022/07/17 08:01:17;;;;;;;2.97;2.25;;;39.20;65.30;;;;;;5043586;28;20044;-76
2022/07/17 08:04:21;;;;;;;5.75;2.30;;;40.40;64.50;;;;;;5049173;28;20055;-75
2022/07/17 08:07:26;;;;;;;4.10;2.22;;;41.50;63.70;;;;;;5050041;28;20044;-76
2022/07/17 08:10:30;;;;;;;5.10;2.75;;;41.20;63.20;;;;;;5050234;28;20051;-76
2022/07/17 08:13:34;;;;;;;5.63;2.40;;;39.90;63.70;;;;;;5049163;28;20056;-74
2022/07/17 08:16:38;;;;;;;4.80;2.38;;;40.40;64.40;;;;;;5050207;28;20487;-75
2022/07/17 08:19:42;;;;;;;9.25;2.85;;;41.00;63.30;;;;;;5050103;28;20044;-76
2022/07/17 08:22:47;;;;;;;4.15;2.00;;;40.80;63.00;;;;;;5037329;28;20495;-75
2022/07/17 08:25:51;;;;;;;7.95;2.40;;;42.20;61.90;;;;;;5049899;28;20052;-75
2022/07/17 08:28:55;;;;;;;4.45;2.42;;;43.30;60.40;;;;;;5049951;28;20044;-75
2022/07/17 08:31:59;;;;;;;6.25;3.05;;;40.60;61.60;;;;;;5049863;28;20032;-74
2022/07/17 08:35:04;;;;;;;4.20;2.47;;;41.00;61.80;;;;;;5049542;28;20064;-75
2022/07/17 08:38:08;;;;;;;4.18;2.30;;;41.90;60.80;;;;;;5048849;28;20392;-74
2022/07/17 08:41:16;;;;;;;6.63;2.30;;;43.90;59.60;;;;;;5050387;28;20049;-74
2022/07/17 08:44:20;;;;;;;6.72;2.83;;;44.40;58.40;;;;;;5049396;28;20056;-75
2022/07/17 08:47:24;;;;;;;3.25;2.38;;;41.70;59.20;;;;;;5050102;28;20044;-74
2022/07/17 08:50:31;;;;;;;7.00;2.40;;;43.50;59.20;;;;;;5049796;28;20044;-74
2022/07/17 08:53:35;;;;;;;4.47;2.08;;;45.30;58.20;;;;;;5050778;28;20048;-75
2022/07/17 08:56:39;;;;;;;4.38;2.05;;;46.50;56.00;;;;;;5052666;28;20064;-74
2022/07/17 08:59:47;;;;;;;3.63;2.17;;;47.40;55.10;;;;;;5050612;28;20518;-75
2022/07/17 09:03:05;;;;;;;2.40;1.90;;;48.00;54.40;;;;;;5053664;28;20052;-76
2022/07/17 09:06:21;;;;;;;4.97;1.88;;;48.40;54.30;;;;;;5053684;28;20044;-76
2022/07/17 09:09:25;;;;;;;3.80;2.20;;;49.10;53.50;;;;;;5048349;28;20052;-74
2022/07/17 09:12:29;;;;;;;6.50;1.90;;;49.70;52.40;;;;;;5053895;28;20063;-75
2022/07/17 09:15:33;;;;;;;4.03;1.70;;;50.40;52.10;;;;;;5053082;28;20056;-75
2022/07/17 09:18:45;;;;;;;3.83;1.75;;;50.70;51.70;;;;;;5053594;28;20051;-75
2022/07/17 09:21:50;;;;;;;4.72;1.80;;;50.00;51.60;;;;;;5053631;28;20055;-75
2022/07/17 09:24:57;;;;;;;3.28;1.98;;;48.40;51.00;;;;;;5052905;28;20395;-74
2022/07/17 09:28:04;;;;;;;2.88;1.80;;;49.30;51.40;;;;;;5040750;28;20040;-75
2022/07/17 09:31:08;;;;;;;2.75;1.80;;;49.90;51.30;;;;;;5053284;28;20051;-75
2022/07/17 09:34:19;;;;;;;2.70;1.58;;;50.10;50.40;;;;;;5052445;28;20056;-75
2022/07/17 09:37:24;;;;;;;1.77;1.65;;;51.00;50.60;;;;;;5052765;28;20055;-75
2022/07/17 09:43:57;;;;;;;3.05;1.73;;;52.60;50.00;;;;;;5052411;28;20052;-75
2022/07/17 09:47:02;;;;;;;2.22;1.80;;;53.40;49.40;;;;;;5052477;28;20055;-75
2022/07/17 09:50:08;;;;;;;5.63;1.83;;;53.90;48.50;;;;;;5052673;28;20468;-75
2022/07/17 09:53:12;;;;;;;4.97;1.80;;;54.10;48.40;;;;;;5052353;28;20067;-75
2022/07/17 09:56:21;;;;;;;7.38;1.48;;;54.10;48.40;;;;;;5052743;28;20048;-75
2022/07/17 09:59:29;;;;;;;5.18;1.58;;;54.20;48.20;;;;;;5052409;28;20048;-76
2022/07/17 10:02:33;;;;;;;2.35;1.52;;;54.50;47.90;;;;;;5052523;28;20056;-75
2022/07/17 10:05:37;;;;;;;2.78;1.70;;;54.20;47.90;;;;;;5050768;28;20044;-75
2022/07/17 10:08:41;;;;;;;7.43;2.33;;;54.30;48.30;;;;;;5052240;28;20040;-75
2022/07/17 10:11:46;;;;;;;3.35;1.65;;;54.90;47.90;;;;;;5052071;28;20040;-75
2022/07/17 10:14:50;;;;;;;2.30;1.77;;;55.40;47.60;;;;;;5051583;28;20052;-76
2022/07/17 10:18:07;;;;;;;2.25;1.42;;;55.40;47.60;;;;;;5051860;28;20040;-75
2022/07/17 10:21:11;;;;;;;3.75;1.92;;;55.50;47.20;;;;;;5052158;28;20039;-77
2022/07/17 10:24:16;;;;;;;4.20;2.03;;;51.10;47.30;;;;;;5051089;28;20037;-74
2022/07/17 10:27:25;;;;;;;4.43;2.28;;;46.40;50.70;;;;;;5051954;28;20048;-75
2022/07/17 10:30:31;;;;;;;3.35;1.77;;;47.50;50.60;;;;;;5039614;28;20764;-72
2022/07/17 10:33:36;;;;;;;5.10;2.28;;;47.60;50.20;;;;;;5051219;28;20044;-75
2022/07/17 10:36:43;;;;;;;6.00;1.90;;;46.20;50.90;;;;;;5050808;28;20052;-76
2022/07/17 10:39:53;;;;;;;4.13;2.30;;;46.10;51.40;;;;;;5051657;28;20048;-75
2022/07/17 10:42:59;;;;;;;6.15;2.17;;;47.70;50.30;;;;;;5051818;28;20125;-76
2022/07/17 10:46:03;;;;;;;30.92;3.38;;;48.60;50.30;;;;;;5051325;28;20399;-75
2022/07/17 10:49:07;;;;;;;3.42;2.20;;;48.30;50.50;;;;;;5051774;28;20059;-75
2022/07/17 10:52:12;;;;;;;3.65;2.22;;;49.30;50.10;;;;;;5051545;28;20052;-76
2022/07/17 10:55:21;;;;;;;4.32;1.92;;;49.70;49.50;;;;;;5050900;28;20485;-76
2022/07/17 10:58:31;;;;;;;3.22;1.98;;;51.00;49.30;;;;;;5051460;28;20044;-75
2022/07/17 11:01:35;;;;;;;6.13;2.05;;;51.80;48.70;;;;;;5051391;28;20044;-76
2022/07/17 11:04:39;;;;;;;4.70;2.30;;;48.40;48.60;;;;;;5050721;28;20048;-75
2022/07/17 11:08:01;;;;;;;4.18;2.33;;;48.90;49.40;;;;;;5051440;28;20068;-75
2022/07/17 11:11:04;;;;;;;2.95;2.00;;;47.50;49.50;;;;;;5051212;28;20039;-76
2022/07/17 11:14:31;;;;;;;3.22;2.20;;;47.50;50.40;;;;;;5051048;28;20100;-75
2022/07/17 11:17:35;;;;;;;4.22;2.00;;;47.30;51.20;;;;;;5050645;28;20395;-74
2022/07/17 11:20:50;;;;;;;2.65;1.95;;;46.60;49.90;;;;;;5051225;28;20403;-76
2022/07/17 11:23:56;;;;;;;6.22;2.10;;;47.70;50.50;;;;;;5050681;28;20055;-76
2022/07/17 11:27:00;;;;;;;3.88;2.08;;;49.10;50.00;;;;;;5050806;28;20059;-75
2022/07/17 11:30:05;;;;;;;4.32;2.17;;;50.80;49.50;;;;;;5051049;28;20040;-76
2022/07/17 11:33:15;;;;;;;2.78;2.00;;;49.90;48.80;;;;;;5050995;28;20415;-75
2022/07/17 11:36:24;;;;;;;5.00;2.10;;;49.50;49.20;;;;;;5049380;28;20056;-75
2022/07/17 11:39:39;;;;;;;4.93;2.30;;;49.00;49.30;;;;;;5050536;28;20048;-75
2022/07/17 11:42:44;;;;;;;4.40;2.35;;;48.50;49.90;;;;;;5050641;28;20056;-76
2022/07/17 11:45:48;;;;;;;5.28;1.80;;;49.50;49.40;;;;;;5050351;28;20499;-75
2022/07/17 11:48:52;;;;;;;4.88;2.17;;;50.50;49.40;;;;;;5050660;28;20040;-76
2022/07/17 11:51:58;;;;;;;2.30;2.10;;;50.70;48.80;;;;;;5050179;28;20035;-77
2022/07/17 11:55:03;;;;;;;2.42;2.08;;;50.20;48.50;;;;;;5050095;28;20048;-75
2022/07/17 11:58:07;;;;;;;5.60;2.25;;;49.80;48.70;;;;;;5050692;28;20047;-75
2022/07/17 12:01:14;;;;;;;5.15;2.30;;;50.30;48.90;;;;;;5049833;28;20053;-75
2022/07/17 12:04:18;;;;;;;3.65;2.35;;;48.80;49.60;;;;;;5049690;28;20040;-75
2022/07/17 12:07:38;;;;;;;5.28;2.20;;;48.00;50.00;;;;;;5049993;28;20044;-76
2022/07/17 12:10:43;;;;;;;3.30;2.20;;;47.40;50.50;;;;;;5050411;28;20040;-76
2022/07/17 12:13:48;;;;;;;4.72;2.50;;;47.40;50.50;;;;;;5049920;28;20051;-74
2022/07/17 12:16:52;;;;;;;4.50;2.22;;;47.90;50.10;;;;;;5050297;28;20059;-75
2022/07/17 12:20:03;;;;;;;5.75;2.50;;;47.40;50.30;;;;;;5050269;28;20044;-75
2022/07/17 12:23:07;;;;;;;5.25;2.58;;;47.60;50.10;;;;;;5050147;28;20495;-75
2022/07/17 12:26:17;;;;;;;5.80;2.42;;;47.70;50.10;;;;;;5049750;28;20048;-75
2022/07/17 12:29:21;;;;;;;4.00;2.80;;;48.10;50.00;;;;;;5036984;28;20052;-75
2022/07/17 12:32:25;;;;;;;5.38;2.30;;;47.90;50.20;;;;;;5050203;28;20412;-75
2022/07/17 12:35:29;;;;;;;3.40;2.50;;;47.20;50.50;;;;;;5049613;28;20044;-75
2022/07/17 12:38:33;;;;;;;6.43;2.67;;;46.90;50.30;;;;;;5049955;28;20052;-75
2022/07/17 12:41:37;;;;;;;4.22;2.70;;;47.10;50.30;;;;;;5050121;28;20391;-74
2022/07/17 12:44:42;;;;;;;4.55;2.67;;;45.70;50.70;;;;;;5049554;28;20048;-74
2022/07/17 12:47:46;;;;;;;4.72;2.83;;;42.70;52.40;;;;;;5050129;28;20044;-75
2022/07/17 12:50:50;;;;;;;5.07;3.33;;;42.40;53.00;;;;;;5049978;28;20495;-75
2022/07/17 12:53:54;;;;;;;3.90;3.30;;;43.10;53.40;;;;;;5049750;28;20040;-75
2022/07/17 12:56:58;;;;;;;5.20;2.90;;;44.40;51.80;;;;;;5049888;28;20044;-73
2022/07/17 13:00:04;;;;;;;5.03;2.42;;;44.30;51.00;;;;;;5050145;28;20056;-74
2022/07/17 13:03:09;;;;;;;4.30;2.90;;;44.70;50.80;;;;;;5050066;28;20048;-73
2022/07/17 13:06:13;;;;;;;8.00;2.70;;;45.60;51.00;;;;;;5049524;28;20392;-74
2022/07/17 13:09:17;;;;;;;4.05;2.95;;;46.00;49.80;;;;;;5050125;28;20498;-75
2022/07/17 13:12:20;;;;;;;5.07;2.70;;;45.30;49.00;;;;;;5049581;28;20391;-73
2022/07/17 13:15:24;;;;;;;4.50;2.40;;;44.80;49.70;;;;;;5049428;28;20044;-75
2022/07/17 13:18:29;;;;;;;3.70;2.60;;;45.30;49.50;;;;;;5037153;28;20489;-74
2022/07/17 13:21:34;;;;;;;3.80;2.88;;;45.80;49.40;;;;;;5049502;28;20052;-72
2022/07/17 13:24:38;;;;;;;4.30;2.60;;;43.60;50.50;;;;;;5049078;28;20046;-75
2022/07/17 13:27:42;;;;;;;4.60;2.50;;;43.60;51.20;;;;;;5049290;28;20048;-74
2022/07/17 13:30:47;;;;;;;8.05;2.80;;;44.20;52.20;;;;;;5049570;28;20048;-75
2022/07/17 13:33:51;;;;;;;4.05;2.72;;;44.70;53.50;;;;;;5049077;28;20052;-73
2022/07/17 13:36:55;;;;;;;7.55;2.78;;;44.30;54.00;;;;;;5024949;28;20538;-76
2022/07/17 13:39:59;;;;;;;23.63;3.55;;;43.80;54.10;;;;;;5049961;28;20056;-72
2022/07/17 13:43:04;;;;;;;58.58;6.22;;;42.50;55.30;;;;;;5040710;28;20526;-73
2022/07/17 13:46:07;;;;;;;4.85;3.40;;;40.90;57.00;;;;;;5053284;28;21036;-72
2022/07/17 13:49:12;;;;;;;5.18;3.25;;;40.50;58.20;;;;;;5053541;28;20052;-74
2022/07/17 13:52:16;;;;;;;4.97;3.45;;;41.00;58.20;;;;;;5053104;28;20068;-71
2022/07/17 13:55:21;;;;;;;6.43;3.33;;;41.10;59.30;;;;;;5052837;28;20048;-72
2022/07/17 13:58:25;;;;;;;7.93;3.67;;;40.40;60.20;;;;;;5053499;28;20044;-72
2022/07/17 14:01:29;;;;;;;8.43;3.65;;;40.00;60.60;;;;;;5052974;28;20048;-74
2022/07/17 14:04:33;;;;;;;9.70;3.97;;;39.60;61.80;;;;;;5052160;28;20052;-74
2022/07/17 14:07:37;;;;;;;14.25;4.30;;;39.10;63.30;;;;;;5053024;28;20040;-73
2022/07/17 14:10:41;;;;;;;6.38;3.90;;;38.30;64.80;;;;;;5052844;28;20037;-71
2022/07/17 14:13:45;;;;;;;12.52;4.80;;;37.90;65.40;;;;;;5052446;28;20036;-72
2022/07/17 14:16:49;;;;;;;13.02;5.20;;;37.60;66.20;;;;;;5052721;28;20043;-72
2022/07/17 14:19:53;;;;;;;12.25;5.38;;;37.00;66.80;;;;;;5052796;28;20060;-71
2022/07/17 14:22:57;;;;;;;8.50;4.78;;;36.50;67.90;;;;;;5053097;28;20067;-72
2022/07/17 14:26:01;;;;;;;8.95;4.78;;;35.90;69.50;;;;;;5051967;28;20063;-72
2022/07/17 14:29:05;;;;;;;7.88;4.50;;;35.50;70.20;;;;;;5052627;28;20395;-72
2022/07/17 14:32:09;;;;;;;8.45;4.63;;;35.20;70.20;;;;;;5052614;28;20395;-74
2022/07/17 14:35:13;;;;;;;17.83;5.50;;;35.10;71.00;;;;;;5052284;28;20044;-72
2022/07/17 14:38:17;;;;;;;9.60;5.25;;;34.70;70.50;;;;;;5052053;28;20056;-74
2022/07/17 14:41:21;;;;;;;6.10;4.85;;;34.40;72.30;;;;;;5052557;28;20056;-71
2022/07/17 14:44:27;;;;;;;9.35;5.15;;;34.20;73.60;;;;;;5052209;28;20482;-73
2022/07/17 14:47:31;;;;;;;17.17;4.90;;;34.00;73.80;;;;;;5052048;28;20040;-72
2022/07/17 14:50:35;;;;;;;6.40;4.90;;;34.20;74.10;;;;;;5051247;28;20052;-73
2022/07/17 14:53:38;;;;;;;11.00;4.95;;;34.50;73.10;;;;;;5051412;28;20044;-71
2022/07/17 14:56:42;;;;;;;7.50;5.03;;;35.10;71.60;;;;;;5051979;28;20052;-74
2022/07/17 14:59:46;;;;;;;6.18;4.95;;;35.50;70.80;;;;;;5052111;28;20059;-74
2022/07/17 15:02:50;;;;;;;6.75;4.15;;;35.80;69.80;;;;;;5051707;28;20052;-74
2022/07/17 15:05:57;;;;;;;6.80;4.10;;;36.20;69.90;;;;;;5051479;28;20060;-74
2022/07/17 15:09:01;;;;;;;6.22;3.95;;;36.50;68.90;;;;;;5051494;28;20044;-75
2022/07/17 15:12:05;;;;;;;6.38;3.83;;;36.80;67.10;;;;;;5051465;28;20068;-76
2022/07/17 15:15:10;;;;;;;6.15;4.35;;;37.10;66.40;;;;;;5051142;28;20047;-75
2022/07/17 15:18:14;;;;;;;7.45;4.20;;;37.50;65.50;;;;;;5051258;28;20109;-75
2022/07/17 15:21:18;;;;;;;5.22;3.63;;;37.70;65.80;;;;;;5051390;28;20063;-76
2022/07/17 15:24:21;;;;;;;6.15;4.03;;;38.00;65.30;;;;;;5050636;28;20052;-75
2022/07/17 15:27:25;;;;;;;6.15;3.92;;;38.10;64.70;;;;;;5038583;28;20044;-72
2022/07/17 15:30:29;;;;;;;6.88;4.03;;;37.90;65.40;;;;;;5051706;28;20044;-75
2022/07/17 15:33:35;;;;;;;6.90;4.13;;;38.00;65.50;;;;;;5050798;28;20053;-75
2022/07/17 15:36:39;;;;;;;8.05;4.05;;;38.00;64.80;;;;;;5050280;28;20055;-75
2022/07/17 15:39:43;;;;;;;9.05;4.18;;;37.80;64.20;;;;;;5050816;28;20047;-75
2022/07/17 15:42:49;;;;;;;6.05;4.35;;;37.30;65.30;;;;;;5050873;28;20051;-75
2022/07/17 15:45:53;;;;;;;7.10;4.28;;;37.30;65.20;;;;;;5050452;28;20052;-75
2022/07/17 15:48:58;;;;;;;15.60;4.47;;;37.40;66.60;;;;;;5050716;28;20120;-75
2022/07/17 15:52:02;;;;;;;7.63;4.30;;;37.70;65.90;;;;;;5050331;28;20097;-75
2022/07/17 15:55:07;;;;;;;4.95;4.00;;;37.80;64.30;;;;;;5037523;28;20044;-75
2022/07/17 15:58:12;;;;;;;8.90;4.45;;;37.80;64.90;;;;;;5050380;28;20060;-75
2022/07/17 16:01:16;;;;;;;5.07;3.85;;;37.90;65.30;;;;;;5050165;28;20069;-75
2022/07/17 16:04:20;;;;;;;4.18;3.78;;;37.80;65.70;;;;;;5050229;28;20044;-73